sensor_id;sensor_type;location;lat;lon;timestamp;pressure;altitude;pressure_sealevel;temperature;humidity
25947;BME280;13745;51.470;9.894;2023-07-30T00:00:51;98638.09;;;18.07;87.22
25947;BME280;13745;51.470;9.894;2023-07-30T00:03:36;98642.66;;;18.04;87.23
25947;BME280;13745;51.470;9.894;2023-07-30T00:06:22;98642.16;;;17.97;87.56
25947;BME280;13745;51.470;9.894;2023-07-30T00:09:08;98650.19;;;17.94;87.22
25947;BME280;13745;51.470;9.894;2023-07-30T00:11:53;98653.06;;;17.89;87.37
25947;BME280;13745;51.470;9.894;2023-07-30T00:14:38;98641.88;;;17.86;87.59
25947;BME280;13745;51.470;9.894;2023-07-30T00:17:23;98643.75;;;17.84;87.55
25947;BME280;13745;51.470;9.894;2023-07-30T00:20:09;98653.50;;;17.82;87.67
25947;BME280;13745;51.470;9.894;2023-07-30T00:22:55;98655.09;;;17.84;87.67
25947;BME280;13745;51.470;9.894;2023-07-30T00:25:41;98656.69;;;17.87;87.50
25947;BME280;13745;51.470;9.894;2023-07-30T00:28:26;98658.41;;;17.88;87.67
25947;BME280;13745;51.470;9.894;2023-07-30T00:31:11;98666.94;;;17.91;87.61
25947;BME280;13745;51.470;9.894;2023-07-30T00:33:56;98677.25;;;17.94;87.71
25947;BME280;13745;51.470;9.894;2023-07-30T00:36:42;98664.13;;;17.94;87.86
25947;BME280;13745;51.470;9.894;2023-07-30T00:39:28;98664.41;;;17.90;87.64
25947;BME280;13745;51.470;9.894;2023-07-30T00:42:13;98664.41;;;17.90;87.72
25947;BME280;13745;51.470;9.894;2023-07-30T00:44:59;98659.16;;;17.90;87.87
25947;BME280;13745;51.470;9.894;2023-07-30T00:47:45;98671.34;;;17.91;87.73
25947;BME280;13745;51.470;9.894;2023-07-30T00:50:31;98669.56;;;17.91;87.66
25947;BME280;13745;51.470;9.894;2023-07-30T00:53:16;98671.25;;;17.92;87.60
25947;BME280;13745;51.470;9.894;2023-07-30T00:56:04;98672.84;;;17.95;87.81
25947;BME280;13745;51.470;9.894;2023-07-30T00:58:50;98671.06;;;17.95;87.71
25947;BME280;13745;51.470;9.894;2023-07-30T01:01:37;98675.41;;;17.96;87.77
25947;BME280;13745;51.470;9.894;2023-07-30T01:04:27;98673.53;;;17.99;87.57
25947;BME280;13745;51.470;9.894;2023-07-30T01:07:12;98676.00;;;18.02;87.56
25947;BME280;13745;51.470;9.894;2023-07-30T01:09:58;98677.69;;;18.03;87.43
25947;BME280;13745;51.470;9.894;2023-07-30T01:12:46;98678.53;;;18.03;87.78
25947;BME280;13745;51.470;9.894;2023-07-30T01:15:31;98680.16;;;18.06;87.62
25947;BME280;13745;51.470;9.894;2023-07-30T01:18:16;98682.78;;;18.06;87.52
25947;BME280;13745;51.470;9.894;2023-07-30T01:21:02;98681.84;;;18.07;87.50
25947;BME280;13745;51.470;9.894;2023-07-30T01:23:48;98689.63;;;18.08;87.47
25947;BME280;13745;51.470;9.894;2023-07-30T01:26:37;98694.78;;;18.10;87.57
25947;BME280;13745;51.470;9.894;2023-07-30T01:29:28;98691.31;;;18.09;87.36
25947;BME280;13745;51.470;9.894;2023-07-30T01:32:15;98694.78;;;18.10;87.50
25947;BME280;13745;51.470;9.894;2023-07-30T01:35:01;98690.47;;;18.09;87.49
25947;BME280;13745;51.470;9.894;2023-07-30T01:37:49;98699.94;;;18.11;87.33
25947;BME280;13745;51.470;9.894;2023-07-30T01:40:35;98699.09;;;18.11;87.19
25947;BME280;13745;51.470;9.894;2023-07-30T01:43:20;98705.28;;;18.10;87.24
25947;BME280;13745;51.470;9.894;2023-07-30T01:46:05;98701.66;;;18.12;87.27
25947;BME280;13745;51.470;9.894;2023-07-30T01:48:50;98699.03;;;18.12;87.42
25947;BME280;13745;51.470;9.894;2023-07-30T01:51:36;98695.47;;;18.13;87.53
25947;BME280;13745;51.470;9.894;2023-07-30T01:54:22;98705.97;;;18.13;87.40
25947;BME280;13745;51.470;9.894;2023-07-30T01:57:07;98699.94;;;18.11;87.51
25947;BME280;13745;51.470;9.894;2023-07-30T01:59:53;98697.56;;;18.07;87.33
25947;BME280;13745;51.470;9.894;2023-07-30T02:02:38;98714.50;;;18.01;87.50
25947;BME280;13745;51.470;9.894;2023-07-30T02:05:24;98708.91;;;17.91;87.44
25947;BME280;13745;51.470;9.894;2023-07-30T02:08:09;98711.09;;;17.83;87.70
25947;BME280;13745;51.470;9.894;2023-07-30T02:10:56;98716.66;;;17.77;87.81
25947;BME280;13745;51.470;9.894;2023-07-30T02:13:41;98726.47;;;17.74;87.94
25947;BME280;13745;51.470;9.894;2023-07-30T02:16:27;98725.72;;;17.72;88.08
25947;BME280;13745;51.470;9.894;2023-07-30T02:19:12;98727.50;;;17.69;88.22
25947;BME280;13745;51.470;9.894;2023-07-30T02:21:57;98731.16;;;17.67;88.13
25947;BME280;13745;51.470;9.894;2023-07-30T02:24:42;98731.16;;;17.67;88.10
25947;BME280;13745;51.470;9.894;2023-07-30T02:27:28;98727.00;;;17.63;88.34
25947;BME280;13745;51.470;9.894;2023-07-30T02:30:14;98728.69;;;17.64;88.57
25947;BME280;13745;51.470;9.894;2023-07-30T02:32:59;98729.69;;;17.61;88.45
25947;BME280;13745;51.470;9.894;2023-07-30T02:35:45;98732.31;;;17.61;88.82
25947;BME280;13745;51.470;9.894;2023-07-30T02:38:30;98732.41;;;17.60;88.79
25947;BME280;13745;51.470;9.894;2023-07-30T02:41:16;98736.72;;;17.61;88.63
25947;BME280;13745;51.470;9.894;2023-07-30T02:44:03;98731.38;;;17.62;89.07
25947;BME280;13745;51.470;9.894;2023-07-30T02:46:48;98745.19;;;17.66;88.94
25947;BME280;13745;51.470;9.894;2023-07-30T02:49:33;98739.78;;;17.69;88.91
25947;BME280;13745;51.470;9.894;2023-07-30T02:52:18;98736.97;;;17.74;89.01
25947;BME280;13745;51.470;9.894;2023-07-30T02:55:04;98741.19;;;17.76;89.06
25947;BME280;13745;51.470;9.894;2023-07-30T02:57:49;98741.88;;;17.80;88.97
25947;BME280;13745;51.470;9.894;2023-07-30T03:00:36;98747.78;;;17.83;89.02
25947;BME280;13745;51.470;9.894;2023-07-30T03:03:21;98749.41;;;17.86;88.92
25947;BME280;13745;51.470;9.894;2023-07-30T03:06:06;98756.28;;;17.88;89.05
25947;BME280;13745;51.470;9.894;2023-07-30T03:08:51;98754.41;;;17.90;88.86
25947;BME280;13745;51.470;9.894;2023-07-30T03:11:36;98755.16;;;17.92;88.96
25947;BME280;13745;51.470;9.894;2023-07-30T03:14:21;98748.06;;;17.94;88.96
25947;BME280;13745;51.470;9.894;2023-07-30T03:17:07;98755.09;;;17.94;88.95
25947;BME280;13745;51.470;9.894;2023-07-30T03:19:53;98757.63;;;17.95;88.96
25947;BME280;13745;51.470;9.894;2023-07-30T03:22:38;98749.75;;;17.95;89.01
25947;BME280;13745;51.470;9.894;2023-07-30T03:25:23;98755.94;;;17.94;88.98
25947;BME280;13745;51.470;9.894;2023-07-30T03:28:08;98754.22;;;17.93;89.02
25947;BME280;13745;51.470;9.894;2023-07-30T03:30:53;98757.78;;;17.92;89.03
25947;BME280;13745;51.470;9.894;2023-07-30T03:33:40;98757.88;;;17.91;89.06
25947;BME280;13745;51.470;9.894;2023-07-30T03:36:27;98757.13;;;17.89;88.98
25947;BME280;13745;51.470;9.894;2023-07-30T03:39:12;98752.88;;;17.86;89.02
25947;BME280;13745;51.470;9.894;2023-07-30T03:41:57;98762.50;;;17.86;89.01
25947;BME280;13745;51.470;9.894;2023-07-30T03:44:42;98762.59;;;17.84;89.07
25947;BME280;13745;51.470;9.894;2023-07-30T03:47:27;98772.31;;;17.82;89.04
25947;BME280;13745;51.470;9.894;2023-07-30T03:50:14;98767.16;;;17.81;89.28
25947;BME280;13745;51.470;9.894;2023-07-30T03:52:59;98769.09;;;17.77;89.02
25947;BME280;13745;51.470;9.894;2023-07-30T03:55:45;98771.78;;;17.76;89.50
25947;BME280;13745;51.470;9.894;2023-07-30T03:58:31;98772.72;;;17.75;89.25
25947;BME280;13745;51.470;9.894;2023-07-30T04:01:15;98772.06;;;17.71;89.35
25947;BME280;13745;51.470;9.894;2023-07-30T04:04:01;98784.41;;;17.67;89.44
25947;BME280;13745;51.470;9.894;2023-07-30T04:06:48;98781.13;;;17.64;89.63
25947;BME280;13745;51.470;9.894;2023-07-30T04:09:33;98789.84;;;17.64;89.57
25947;BME280;13745;51.470;9.894;2023-07-30T04:12:19;98785.56;;;17.62;89.71
25947;BME280;13745;51.470;9.894;2023-07-30T04:15:06;98791.75;;;17.61;89.75
25947;BME280;13745;51.470;9.894;2023-07-30T04:17:51;98805.78;;;17.60;89.72
25947;BME280;13745;51.470;9.894;2023-07-30T04:20:36;98804.00;;;17.60;89.66
25947;BME280;13745;51.470;9.894;2023-07-30T04:23:22;98799.59;;;17.61;89.71
25947;BME280;13745;51.470;9.894;2023-07-30T04:26:08;98802.16;;;17.62;89.67
25947;BME280;13745;51.470;9.894;2023-07-30T04:28:53;98796.06;;;17.62;89.70
25947;BME280;13745;51.470;9.894;2023-07-30T04:31:38;98801.16;;;17.65;89.68
25947;BME280;13745;51.470;9.894;2023-07-30T04:34:23;98814.19;;;17.66;89.52
25947;BME280;13745;51.470;9.894;2023-07-30T04:37:08;98798.63;;;17.63;89.59
25947;BME280;13745;51.470;9.894;2023-07-30T04:39:56;98793.22;;;17.66;89.58
25947;BME280;13745;51.470;9.894;2023-07-30T04:42:42;98808.84;;;17.68;89.61
25947;BME280;13745;51.470;9.894;2023-07-30T04:45:27;98796.53;;;17.70;89.43
25947;BME280;13745;51.470;9.894;2023-07-30T04:48:13;98804.34;;;17.72;89.39
25947;BME280;13745;51.470;9.894;2023-07-30T04:50:58;98793.78;;;17.73;89.30
25947;BME280;13745;51.470;9.894;2023-07-30T04:53:43;98799.78;;;17.75;89.07
25947;BME280;13745;51.470;9.894;2023-07-30T04:56:29;98797.84;;;17.79;89.03
25947;BME280;13745;51.470;9.894;2023-07-30T04:59:15;98797.78;;;17.80;89.03
25947;BME280;13745;51.470;9.894;2023-07-30T05:01:59;98808.94;;;17.84;89.04
25947;BME280;13745;51.470;9.894;2023-07-30T05:04:44;98803.63;;;17.85;88.71
25947;BME280;13745;51.470;9.894;2023-07-30T05:07:29;98802.63;;;17.88;88.73
25947;BME280;13745;51.470;9.894;2023-07-30T05:10:15;98801.63;;;17.90;88.56
25947;BME280;13745;51.470;9.894;2023-07-30T05:13:02;98796.94;;;17.95;88.73
25947;BME280;13745;51.470;9.894;2023-07-30T05:15:47;98797.66;;;17.99;88.56
25947;BME280;13745;51.470;9.894;2023-07-30T05:18:32;98805.25;;;18.04;88.39
25947;BME280;13745;51.470;9.894;2023-07-30T05:21:17;98804.28;;;18.06;88.23
25947;BME280;13745;51.470;9.894;2023-07-30T05:24:03;98798.94;;;18.08;88.02
25947;BME280;13745;51.470;9.894;2023-07-30T05:26:48;98802.19;;;18.13;87.81
25947;BME280;13745;51.470;9.894;2023-07-30T05:29:35;98792.13;;;18.21;87.55
25947;BME280;13745;51.470;9.894;2023-07-30T05:32:20;98788.22;;;18.28;87.25
25947;BME280;13745;51.470;9.894;2023-07-30T05:35:06;98791.22;;;18.38;86.97
25947;BME280;13745;51.470;9.894;2023-07-30T05:37:51;98789.00;;;18.46;86.80
25947;BME280;13745;51.470;9.894;2023-07-30T05:40:36;98796.38;;;18.55;86.53
25947;BME280;13745;51.470;9.894;2023-07-30T05:43:21;98800.22;;;18.65;86.27
25947;BME280;13745;51.470;9.894;2023-07-30T05:46:07;98791.91;;;18.73;85.91
25947;BME280;13745;51.470;9.894;2023-07-30T05:48:52;98797.38;;;18.84;85.52
25947;BME280;13745;51.470;9.894;2023-07-30T05:51:37;98792.63;;;18.91;85.04
25947;BME280;13745;51.470;9.894;2023-07-30T05:54:22;98792.19;;;18.98;84.22
25947;BME280;13745;51.470;9.894;2023-07-30T05:57:07;98787.34;;;19.06;84.05
25947;BME280;13745;51.470;9.894;2023-07-30T05:59:52;98793.22;;;19.12;83.65
25947;BME280;13745;51.470;9.894;2023-07-30T06:02:39;98792.47;;;19.24;83.49
25947;BME280;13745;51.470;9.894;2023-07-30T06:05:24;98797.09;;;19.34;83.02
25947;BME280;13745;51.470;9.894;2023-07-30T06:08:10;98799.13;;;19.45;83.03
25947;BME280;13745;51.470;9.894;2023-07-30T06:11:00;98795.00;;;19.55;82.76
25947;BME280;13745;51.470;9.894;2023-07-30T06:13:46;98801.63;;;19.62;82.57
25947;BME280;13745;51.470;9.894;2023-07-30T06:16:31;98790.56;;;19.72;82.03
25947;BME280;13745;51.470;9.894;2023-07-30T06:19:17;98790.00;;;19.81;82.08
25947;BME280;13745;51.470;9.894;2023-07-30T06:22:03;98798.16;;;19.90;81.80
25947;BME280;13745;51.470;9.894;2023-07-30T06:24:48;98794.13;;;19.99;81.07
25947;BME280;13745;51.470;9.894;2023-07-30T06:27:33;98797.81;;;20.11;80.79
25947;BME280;13745;51.470;9.894;2023-07-30T06:30:18;98801.72;;;20.18;80.50
25947;BME280;13745;51.470;9.894;2023-07-30T06:33:03;98802.50;;;20.20;80.43
25947;BME280;13745;51.470;9.894;2023-07-30T06:35:50;98789.59;;;20.30;80.27
25947;BME280;13745;51.470;9.894;2023-07-30T06:38:35;98791.00;;;20.50;79.65
25947;BME280;13745;51.470;9.894;2023-07-30T06:41:20;98793.53;;;20.51;79.54
25947;BME280;13745;51.470;9.894;2023-07-30T06:44:05;98789.53;;;20.45;79.86
25947;BME280;13745;51.470;9.894;2023-07-30T06:46:51;98800.31;;;20.55;79.44
25947;BME280;13745;51.470;9.894;2023-07-30T06:49:36;98794.31;;;20.53;79.16
25947;BME280;13745;51.470;9.894;2023-07-30T06:52:22;98799.47;;;20.55;78.45
25947;BME280;13745;51.470;9.894;2023-07-30T06:55:08;98794.00;;;20.58;78.89
25947;BME280;13745;51.470;9.894;2023-07-30T06:57:53;98792.66;;;20.65;78.24
25947;BME280;13745;51.470;9.894;2023-07-30T07:00:38;98800.53;;;20.79;77.48
25947;BME280;13745;51.470;9.894;2023-07-30T07:03:23;98812.78;;;20.93;77.49
25947;BME280;13745;51.470;9.894;2023-07-30T07:06:08;98813.97;;;20.89;76.75
25947;BME280;13745;51.470;9.894;2023-07-30T07:08:55;98804.16;;;20.91;75.63
25947;BME280;13745;51.470;9.894;2023-07-30T07:11:41;98805.91;;;21.04;75.80
25947;BME280;13745;51.470;9.894;2023-07-30T07:14:26;98810.63;;;20.99;75.52
25947;BME280;13745;51.470;9.894;2023-07-30T07:17:11;98809.28;;;21.07;74.96
25947;BME280;13745;51.470;9.894;2023-07-30T07:19:56;98806.97;;;21.15;74.67
25947;BME280;13745;51.470;9.894;2023-07-30T07:22:42;98820.66;;;21.34;73.82
25947;BME280;13745;51.470;9.894;2023-07-30T07:25:28;98819.00;;;21.46;73.96
25947;BME280;13745;51.470;9.894;2023-07-30T07:28:13;98824.28;;;21.58;73.83
25947;BME280;13745;51.470;9.894;2023-07-30T07:30:58;98837.16;;;21.50;73.17
25947;BME280;13745;51.470;9.894;2023-07-30T07:33:44;98835.56;;;21.35;73.26
25947;BME280;13745;51.470;9.894;2023-07-30T07:36:29;98839.53;;;21.28;73.38
25947;BME280;13745;51.470;9.894;2023-07-30T07:39:14;98835.47;;;21.22;73.11
25947;BME280;13745;51.470;9.894;2023-07-30T07:42:01;98833.94;;;21.33;73.24
25947;BME280;13745;51.470;9.894;2023-07-30T07:44:46;98835.91;;;21.43;72.62
25947;BME280;13745;51.470;9.894;2023-07-30T07:47:32;98829.00;;;21.41;73.13
25947;BME280;13745;51.470;9.894;2023-07-30T07:50:17;98818.69;;;21.38;72.66
25947;BME280;13745;51.470;9.894;2023-07-30T07:53:02;98831.03;;;21.37;72.95
25947;BME280;13745;51.470;9.894;2023-07-30T07:55:47;98827.53;;;21.37;72.79
25947;BME280;13745;51.470;9.894;2023-07-30T07:58:33;98813.41;;;21.38;73.16
25947;BME280;13745;51.470;9.894;2023-07-30T08:01:19;98823.00;;;21.39;73.39
25947;BME280;13745;51.470;9.894;2023-07-30T08:04:04;98818.28;;;21.44;72.72
25947;BME280;13745;51.470;9.894;2023-07-30T08:06:49;98810.25;;;21.45;73.27
25947;BME280;13745;51.470;9.894;2023-07-30T08:09:35;98819.00;;;21.46;72.93
25947;BME280;13745;51.470;9.894;2023-07-30T08:12:20;98819.75;;;21.48;73.15
25947;BME280;13745;51.470;9.894;2023-07-30T08:15:07;98826.19;;;21.56;72.88
25947;BME280;13745;51.470;9.894;2023-07-30T08:17:52;98823.25;;;21.61;72.92
25947;BME280;13745;51.470;9.894;2023-07-30T08:20:37;98827.41;;;21.78;72.24
25947;BME280;13745;51.470;9.894;2023-07-30T08:23:23;98819.81;;;21.86;71.80
25947;BME280;13745;51.470;9.894;2023-07-30T08:26:08;98823.78;;;21.92;72.00
25947;BME280;13745;51.470;9.894;2023-07-30T08:28:53;98831.50;;;21.82;71.63
25947;BME280;13745;51.470;9.894;2023-07-30T08:31:40;98833.94;;;21.72;71.82
25947;BME280;13745;51.470;9.894;2023-07-30T08:34:25;98832.53;;;21.67;72.08
25947;BME280;13745;51.470;9.894;2023-07-30T08:37:10;98830.00;;;21.65;72.32
25947;BME280;13745;51.470;9.894;2023-07-30T08:39:56;98828.09;;;21.67;71.78
25947;BME280;13745;51.470;9.894;2023-07-30T08:42:41;98823.25;;;21.74;72.21
25947;BME280;13745;51.470;9.894;2023-07-30T08:45:26;98820.22;;;21.80;71.37
25947;BME280;13745;51.470;9.894;2023-07-30T08:48:12;98816.31;;;21.98;71.41
25947;BME280;13745;51.470;9.894;2023-07-30T08:50:58;98815.56;;;22.09;71.60
25947;BME280;13745;51.470;9.894;2023-07-30T08:53:44;98808.31;;;22.12;70.99
25947;BME280;13745;51.470;9.894;2023-07-30T08:56:30;98811.16;;;22.09;71.03
25947;BME280;13745;51.470;9.894;2023-07-30T08:59:16;98809.66;;;22.05;70.57
25947;BME280;13745;51.470;9.894;2023-07-30T09:02:04;98811.44;;;21.92;71.12
25947;BME280;13745;51.470;9.894;2023-07-30T09:04:56;98812.41;;;21.78;71.11
25947;BME280;13745;51.470;9.894;2023-07-30T09:07:43;98819.03;;;21.71;70.84
25947;BME280;13745;51.470;9.894;2023-07-30T09:10:28;98814.28;;;21.64;70.90
25947;BME280;13745;51.470;9.894;2023-07-30T09:13:20;98819.44;;;21.52;71.60
25947;BME280;13745;51.470;9.894;2023-07-30T09:16:09;98812.25;;;21.42;71.67
25947;BME280;13745;51.470;9.894;2023-07-30T09:18:55;98826.25;;;21.29;72.20
25947;BME280;13745;51.470;9.894;2023-07-30T09:21:41;98817.25;;;21.19;72.50
25947;BME280;13745;51.470;9.894;2023-07-30T09:24:27;98831.94;;;21.09;72.66
25947;BME280;13745;51.470;9.894;2023-07-30T09:27:12;98829.16;;;20.98;73.34
25947;BME280;13745;51.470;9.894;2023-07-30T09:29:58;98830.31;;;20.94;73.40
25947;BME280;13745;51.470;9.894;2023-07-30T09:32:43;98829.38;;;20.95;73.27
25947;BME280;13745;51.470;9.894;2023-07-30T09:35:32;98837.34;;;20.93;73.63
25947;BME280;13745;51.470;9.894;2023-07-30T09:38:19;98842.84;;;20.90;73.96
25947;BME280;13745;51.470;9.894;2023-07-30T09:41:04;98848.41;;;20.86;74.08
25947;BME280;13745;51.470;9.894;2023-07-30T09:43:57;98846.63;;;20.86;74.62
25947;BME280;13745;51.470;9.894;2023-07-30T09:46:43;98853.75;;;20.84;74.68
25947;BME280;13745;51.470;9.894;2023-07-30T09:49:28;98861.13;;;20.79;75.00
25947;BME280;13745;51.470;9.894;2023-07-30T09:52:15;98865.84;;;20.74;75.43
25947;BME280;13745;51.470;9.894;2023-07-30T09:55:06;98870.75;;;20.66;76.19
25947;BME280;13745;51.470;9.894;2023-07-30T09:57:51;98867.84;;;20.56;77.46
25947;BME280;13745;51.470;9.894;2023-07-30T10:00:37;98874.25;;;20.52;77.87
25947;BME280;13745;51.470;9.894;2023-07-30T10:03:23;98874.25;;;20.52;78.57
25947;BME280;13745;51.470;9.894;2023-07-30T10:06:08;98881.13;;;20.55;78.84
25947;BME280;13745;51.470;9.894;2023-07-30T10:08:57;98885.63;;;20.53;79.67
25947;BME280;13745;51.470;9.894;2023-07-30T10:11:47;98880.75;;;20.46;80.23
25947;BME280;13745;51.470;9.894;2023-07-30T10:14:34;98889.91;;;20.39;80.37
25947;BME280;13745;51.470;9.894;2023-07-30T10:17:20;98895.19;;;20.25;80.34
25947;BME280;13745;51.470;9.894;2023-07-30T10:20:20;98892.91;;;20.05;80.99
25947;BME280;13745;51.470;9.894;2023-07-30T10:23:05;98886.78;;;19.90;81.06
25947;BME280;13745;51.470;9.894;2023-07-30T10:25:52;98896.06;;;19.81;82.16
25947;BME280;13745;51.470;9.894;2023-07-30T10:28:40;98898.38;;;19.72;82.36
25947;BME280;13745;51.470;9.894;2023-07-30T10:31:38;98901.63;;;19.61;82.47
25947;BME280;13745;51.470;9.894;2023-07-30T10:34:26;98910.28;;;19.47;83.02
25947;BME280;13745;51.470;9.894;2023-07-30T10:37:17;98901.06;;;19.40;83.55
25947;BME280;13745;51.470;9.894;2023-07-30T10:40:15;98901.50;;;19.32;83.66
25947;BME280;13745;51.470;9.894;2023-07-30T10:43:02;98913.97;;;19.29;83.90
25947;BME280;13745;51.470;9.894;2023-07-30T10:45:52;98898.34;;;19.26;84.46
25947;BME280;13745;51.470;9.894;2023-07-30T10:48:38;98903.72;;;19.24;84.14
25947;BME280;13745;51.470;9.894;2023-07-30T10:51:23;98912.63;;;19.22;84.19
25947;BME280;13745;51.470;9.894;2023-07-30T10:54:09;98908.44;;;19.18;84.69
25947;BME280;13745;51.470;9.894;2023-07-30T10:56:54;98911.25;;;19.15;84.47
25947;BME280;13745;51.470;9.894;2023-07-30T10:59:39;98910.66;;;19.09;85.13
25947;BME280;13745;51.470;9.894;2023-07-30T11:02:27;98909.91;;;19.07;85.39
25947;BME280;13745;51.470;9.894;2023-07-30T11:05:13;98905.59;;;19.06;85.29
25947;BME280;13745;51.470;9.894;2023-07-30T11:07:58;98912.63;;;19.06;85.16
25947;BME280;13745;51.470;9.894;2023-07-30T11:10:44;98916.94;;;19.07;85.66
25947;BME280;13745;51.470;9.894;2023-07-30T11:13:35;98922.28;;;19.05;85.88
25947;BME280;13745;51.470;9.894;2023-07-30T11:16:21;98921.78;;;18.99;85.50
25947;BME280;13745;51.470;9.894;2023-07-30T11:19:08;98926.50;;;18.92;85.96
25947;BME280;13745;51.470;9.894;2023-07-30T11:21:57;98925.22;;;18.84;86.25
25947;BME280;13745;51.470;9.894;2023-07-30T11:24:42;98932.53;;;18.78;86.16
25947;BME280;13745;51.470;9.894;2023-07-30T11:27:27;98932.94;;;18.71;86.34
25947;BME280;13745;51.470;9.894;2023-07-30T11:30:12;98936.88;;;18.62;86.23
25947;BME280;13745;51.470;9.894;2023-07-30T11:32:57;98921.28;;;18.59;86.71
25947;BME280;13745;51.470;9.894;2023-07-30T11:35:44;98916.94;;;18.58;86.78
25947;BME280;13745;51.470;9.894;2023-07-30T11:38:30;98926.59;;;18.58;86.57
25947;BME280;13745;51.470;9.894;2023-07-30T11:41:17;98924.47;;;18.66;86.29
25947;BME280;13745;51.470;9.894;2023-07-30T11:44:03;98922.34;;;18.72;86.16
25947;BME280;13745;51.470;9.894;2023-07-30T11:46:53;98934.22;;;18.79;86.24
25947;BME280;13745;51.470;9.894;2023-07-30T11:49:38;98937.78;;;18.78;86.47
25947;BME280;13745;51.470;9.894;2023-07-30T11:52:25;98950.13;;;18.76;86.43
25947;BME280;13745;51.470;9.894;2023-07-30T11:55:10;98947.78;;;18.72;86.77
25947;BME280;13745;51.470;9.894;2023-07-30T11:57:58;98944.53;;;18.67;86.70
25947;BME280;13745;51.470;9.894;2023-07-30T12:00:43;98949.88;;;18.65;86.85
25947;BME280;13745;51.470;9.894;2023-07-30T12:03:28;98930.00;;;18.60;86.57
25947;BME280;13745;51.470;9.894;2023-07-30T12:06:14;98938.44;;;18.66;86.02
25947;BME280;13745;51.470;9.894;2023-07-30T12:09:00;98940.66;;;18.74;85.66
25947;BME280;13745;51.470;9.894;2023-07-30T12:11:47;98932.34;;;18.82;85.75
25947;BME280;13745;51.470;9.894;2023-07-30T12:14:43;98932.19;;;18.85;85.09
25947;BME280;13745;51.470;9.894;2023-07-30T12:17:29;98937.34;;;18.86;85.08
25947;BME280;13745;51.470;9.894;2023-07-30T12:20:14;98931.94;;;18.89;85.28
25947;BME280;13745;51.470;9.894;2023-07-30T12:23:01;98937.88;;;18.93;85.66
25947;BME280;13745;51.470;9.894;2023-07-30T12:25:48;98938.63;;;18.95;85.23
25947;BME280;13745;51.470;9.894;2023-07-30T12:28:33;98934.72;;;19.02;85.22
25947;BME280;13745;51.470;9.894;2023-07-30T12:31:18;98933.22;;;19.14;85.23
25947;BME280;13745;51.470;9.894;2023-07-30T12:34:03;98939.13;;;19.33;84.28
25947;BME280;13745;51.470;9.894;2023-07-30T12:36:48;98942.34;;;19.54;83.10
25947;BME280;13745;51.470;9.894;2023-07-30T12:39:34;98938.84;;;19.69;82.69
25947;BME280;13745;51.470;9.894;2023-07-30T12:42:20;98940.28;;;19.75;81.71
25947;BME280;13745;51.470;9.894;2023-07-30T12:45:06;98927.28;;;19.87;80.84
25947;BME280;13745;51.470;9.894;2023-07-30T12:47:51;98933.13;;;20.07;80.24
25947;BME280;13745;51.470;9.894;2023-07-30T12:50:36;98935.69;;;20.23;79.83
25947;BME280;13745;51.470;9.894;2023-07-30T12:53:21;98930.81;;;20.31;79.31
25947;BME280;13745;51.470;9.894;2023-07-30T12:56:06;98930.47;;;20.37;79.10
25947;BME280;13745;51.470;9.894;2023-07-30T12:58:53;98938.25;;;20.38;78.87
25947;BME280;13745;51.470;9.894;2023-07-30T13:01:38;98940.59;;;20.43;78.78
25947;BME280;13745;51.470;9.894;2023-07-30T13:04:24;98932.56;;;20.46;78.47
25947;BME280;13745;51.470;9.894;2023-07-30T13:07:10;98942.53;;;20.55;78.80
25947;BME280;13745;51.470;9.894;2023-07-30T13:10:03;98942.34;;;20.58;78.07
25947;BME280;13745;51.470;9.894;2023-07-30T13:12:48;98946.38;;;20.64;78.53
25947;BME280;13745;51.470;9.894;2023-07-30T13:15:35;98931.91;;;20.71;77.49
25947;BME280;13745;51.470;9.894;2023-07-30T13:18:20;98934.59;;;20.84;76.90
25947;BME280;13745;51.470;9.894;2023-07-30T13:21:05;98933.47;;;20.88;77.29
25947;BME280;13745;51.470;9.894;2023-07-30T13:23:50;98935.91;;;21.05;76.75
25947;BME280;13745;51.470;9.894;2023-07-30T13:26:35;98918.78;;;21.25;76.79
25947;BME280;13745;51.470;9.894;2023-07-30T13:29:20;98925.28;;;21.34;76.90
25947;BME280;13745;51.470;9.894;2023-07-30T13:32:07;98920.38;;;21.42;75.83
25947;BME280;13745;51.470;9.894;2023-07-30T13:34:53;98926.59;;;21.41;75.41
25947;BME280;13745;51.470;9.894;2023-07-30T13:37:38;98917.09;;;21.38;75.69
25947;BME280;13745;51.470;9.894;2023-07-30T13:40:23;98910.66;;;21.42;74.92
25947;BME280;13745;51.470;9.894;2023-07-30T13:43:08;98917.00;;;21.40;74.92
25947;BME280;13745;51.470;9.894;2023-07-30T13:45:53;98916.50;;;21.47;74.30
25947;BME280;13745;51.470;9.894;2023-07-30T13:48:39;98909.78;;;21.56;74.91
25947;BME280;13745;51.470;9.894;2023-07-30T13:51:24;98913.69;;;21.63;74.88
25947;BME280;13745;51.470;9.894;2023-07-30T13:54:10;98908.97;;;21.68;74.60
25947;BME280;13745;51.470;9.894;2023-07-30T13:56:55;98912.47;;;21.69;73.55
25947;BME280;13745;51.470;9.894;2023-07-30T13:59:40;98921.41;;;21.66;72.99
25947;BME280;13745;51.470;9.894;2023-07-30T14:02:28;98911.50;;;21.70;73.25
25947;BME280;13745;51.470;9.894;2023-07-30T14:05:14;98918.16;;;21.75;72.96
25947;BME280;13745;51.470;9.894;2023-07-30T14:07:59;98916.78;;;21.82;72.35
25947;BME280;13745;51.470;9.894;2023-07-30T14:10:45;98911.31;;;21.85;71.83
25947;BME280;13745;51.470;9.894;2023-07-30T14:13:30;98908.13;;;21.80;71.52
25947;BME280;13745;51.470;9.894;2023-07-30T14:16:15;98915.28;;;21.66;70.78
25947;BME280;13745;51.470;9.894;2023-07-30T14:19:00;98915.34;;;21.51;70.98
25947;BME280;13745;51.470;9.894;2023-07-30T14:21:47;98907.84;;;21.45;70.60
25947;BME280;13745;51.470;9.894;2023-07-30T14:24:32;98895.22;;;21.63;70.63
25947;BME280;13745;51.470;9.894;2023-07-30T14:27:18;98894.31;;;21.77;69.85
25947;BME280;13745;51.470;9.894;2023-07-30T14:30:04;98888.81;;;21.80;70.24
25947;BME280;13745;51.470;9.894;2023-07-30T14:32:50;98903.81;;;21.79;69.37
25947;BME280;13745;51.470;9.894;2023-07-30T14:35:35;98895.69;;;21.82;69.17
25947;BME280;13745;51.470;9.894;2023-07-30T14:38:23;98880.50;;;21.86;68.96